Bei Facebook empfehlenBei Twitter postenGoogle plusPinterest

Das Wetter im Erzgebirge am 24.02.2017

Wetter und Klima am 24.02.2017 Holzhau im Erzgebirge (630m ü.NN)
Letzte gemessene Temperatur und Uhrzeit der Messung23:45:00 Uhr-4.50 °C
Temperatur (Maximum / Höchstwert) und Uhrzeit der Messung01:15:00 Uhr4.30 °C
Temperatur (Minimum / Tiefstwert) und Uhrzeit der Messung23:00:00-6.20 °C
Errechneter Absolutwert der Temperaturschwankungen zwischen Tmin und Tmax des Tages10.50 K
Errechnete Tagesmitteltemperatur-0.10104 °C
Gesamt - Niederschlag des Tages (in flüssiger Form)0.00 Liter / m²
Luftdruck (Maximum / Höchstwert) und Zeitpunkt der Messung23:45:00 Uhr1012.60 hPa
Luftdruck (Minimum / Tiefstwert) und Zeitpunkt der Messung03:45:00 Uhr989.50 hPa
Errechneter Absolutwert der Luftdruckschwankungen des Tages23.10 hPa
Höchste gemessene Windgeschwindigkeit und Uhrzeit der Messung04:45:00 Uhr32.76 km/h
Errechnete Windhäufigkeit in Relation zu den Messwerten des Tages73.95833 %
Niedrigste Windkühle (Windchill) und Zeitpunkt der Messung07:00:00 Uhr-6.50 °C
Taupunkt (Maximum / Höchstwert) und Uhrzeit der Messung01:45:00 Uhr-0.30 °C
Taupunkt (Minimum / Tiefstwert) und Uhrzeit der Messung23:00:00-7.90 °C
Anzahl der automatisch eingelesenen Messwerte 96

Detaillierte Wetter- und Klima- Messwerte für den 24.02.2017 in Holzhau im Erzgebirge (630m ü.NN)
ZeitTemperaturLuftdruckRel. LuftfeuchteWindWindrichtungWindchillTaupunktNiederschlag l/m²
23:45:00-4.50 °C1012.60 hPa92.00 %-5.70 °C 
23:30:00-5.50 °C1012.40 hPa91.00 %-6.90 °C 
23:15:00-5.90 °C1012.10 hPa90.00 %-7.40 °C 
23:00:00-6.20 °C1012.20 hPa89.00 %-7.90 °C 
22:45:00-6.10 °C1011.90 hPa90.00 %-7.60 °C 
22:30:00-5.90 °C1011.90 hPa90.00 %-7.40 °C 
22:15:00-5.70 °C1011.90 hPa90.00 %-7.20 °C 
22:00:00-5.90 °C1011.80 hPa90.00 %-7.40 °C 
21:45:00-6.20 °C1011.70 hPa89.00 %1.08 km/hSSW-6.20 °C-7.90 °C 
21:30:00-5.70 °C1011.70 hPa89.00 %-7.40 °C 
21:15:00-5.30 °C1011.50 hPa89.00 %-7.00 °C 
21:00:00-5.10 °C1011.40 hPa89.00 %-6.80 °C 
20:45:00-4.70 °C1011.20 hPa89.00 %-6.40 °C 
20:30:00-4.40 °C1011.10 hPa89.00 %-6.10 °C 
20:15:00-4.00 °C1010.90 hPa90.00 %-5.60 °C 
20:00:00-3.70 °C1010.50 hPa89.00 %-5.40 °C 
19:45:00-3.60 °C1010.40 hPa89.00 %-5.30 °C 
19:30:00-3.30 °C1010.20 hPa89.00 %-5.00 °C 
19:15:00-3.10 °C1009.70 hPa88.00 %-5.00 °C 
19:00:00-2.80 °C1009.30 hPa88.00 %4.32 km/hWNW-2.80 °C-4.70 °C 
18:45:00-2.80 °C1008.90 hPa88.00 %5.40 km/hNW-5.00 °C-4.70 °C 
18:30:00-2.90 °C1008.70 hPa87.00 %-5.00 °C 
18:15:00-2.70 °C1008.20 hPa87.00 %-4.80 °C 
18:00:00-2.30 °C1008.00 hPa87.00 %3.24 km/hWNW-2.30 °C-4.40 °C 
17:45:00-1.70 °C1007.90 hPa87.00 %-3.80 °C 
17:30:00-1.30 °C1007.60 hPa88.00 %-3.20 °C 
17:15:00-1.10 °C1007.10 hPa89.00 %4.68 km/hWNW-1.10 °C-2.90 °C 
17:00:00-1.30 °C1006.90 hPa89.00 %-3.10 °C 
16:45:00-1.10 °C1006.70 hPa89.00 %5.04 km/hSW-2.90 °C-2.90 °C 
16:30:00-0.90 °C1006.10 hPa88.00 %9.72 km/hWNW-4.30 °C-2.80 °C 
16:15:00-0.60 °C1006.00 hPa87.00 %7.56 km/hW-3.30 °C-2.70 °C 
16:00:00-0.20 °C1005.60 hPa85.00 %11.16 km/hNW-3.80 °C-2.70 °C 
15:45:00-0.20 °C1005.50 hPa82.00 %-3.20 °C 
15:30:001.60 °C1005.30 hPa77.00 %5.40 km/hNNW0.10 °C-2.00 °C 
15:15:001.80 °C1004.50 hPa78.00 %6.12 km/hW0.00 °C-1.60 °C 
15:00:001.10 °C1004.40 hPa81.00 %3.96 km/hN1.10 °C-1.80 °C 
14:45:000.90 °C1004.30 hPa82.00 %7.56 km/hW-1.50 °C-1.80 °C 
14:30:000.20 °C1004.00 hPa85.00 %2.52 km/hWNW0.20 °C-2.00 °C 
14:15:00-0.10 °C1003.80 hPa86.00 %-2.40 °C 
14:00:00-0.10 °C1004.00 hPa86.00 %1.80 km/hWNW-0.10 °C-2.40 °C 
13:45:000.10 °C1003.80 hPa85.00 %3.60 km/hNNO0.10 °C-2.10 °C 
13:30:000.20 °C1003.60 hPa84.00 %12.96 km/hWSW-3.80 °C-2.20 °C 
13:15:000.40 °C1003.30 hPa83.00 %1.80 km/hNW0.40 °C-2.10 °C 
13:00:000.60 °C1003.20 hPa82.00 %7.56 km/hNW-1.90 °C-2.10 °C 
12:45:000.80 °C1002.80 hPa80.00 %3.96 km/hWNW0.80 °C-2.20 °C 
12:30:001.10 °C1002.40 hPa78.00 %13.68 km/hSW-2.80 °C-2.30 °C 
12:15:001.00 °C1002.30 hPa80.00 %1.80 km/hSW1.00 °C-2.10 °C 
12:00:000.90 °C1001.90 hPa81.00 %6.48 km/hNNO-1.20 °C-2.00 °C 
11:45:000.90 °C1001.80 hPa79.00 %15.12 km/hNW-3.30 °C-2.30 °C 
11:30:001.00 °C1001.60 hPa77.00 %1.44 km/hWNW1.00 °C-2.60 °C 
11:15:000.80 °C1001.30 hPa78.00 %8.64 km/hWNW-2.00 °C-2.60 °C 
11:00:000.70 °C1001.20 hPa79.00 %8.28 km/hW-2.00 °C-2.50 °C 
10:45:000.50 °C1000.90 hPa80.00 %13.32 km/hW-3.50 °C-2.50 °C 
10:30:000.60 °C1000.50 hPa80.00 %3.60 km/hWNW0.60 °C-2.40 °C 
10:15:000.70 °C1000.60 hPa81.00 %12.96 km/hW-3.20 °C-2.20 °C 
10:00:000.40 °C1000.10 hPa82.00 %6.12 km/hW-1.60 °C-2.30 °C 
09:45:000.20 °C999.80 hPa83.00 %7.56 km/hW-2.40 °C-2.30 °C 
09:30:000.10 °C999.20 hPa82.00 %6.84 km/hW-2.20 °C-2.60 °C 
09:15:000.10 °C999.00 hPa83.00 %7.92 km/hW-2.60 °C-2.40 °C 
09:00:00-0.10 °C998.30 hPa84.00 %7.56 km/hWSW-2.70 °C-2.80 °C 
08:45:000.10 °C998.10 hPa83.00 %9.36 km/hWSW-3.00 °C-2.40 °C 
08:30:000.10 °C997.80 hPa84.00 %4.68 km/hSW0.10 °C-2.30 °C 
08:15:000.10 °C997.20 hPa85.00 %18.36 km/hNNW-4.90 °C-2.10 °C 
08:00:000.10 °C996.50 hPa86.00 %9.36 km/hWNW-3.00 °C-2.00 °C 
07:45:000.20 °C996.00 hPa87.00 %9.72 km/hWNW-3.00 °C-1.70 °C 
07:30:000.10 °C995.50 hPa89.00 %6.12 km/hW-2.00 °C-1.50 °C 
07:15:00-0.10 °C995.30 hPa90.00 %10.80 km/hNW-3.60 °C-1.70 °C 
07:00:00-0.10 °C994.70 hPa91.00 %28.80 km/hNW-6.50 °C-1.50 °C 
06:45:000.10 °C994.20 hPa90.00 %4.32 km/hWNW0.10 °C-1.30 °C 
06:30:000.20 °C993.70 hPa89.00 %23.40 km/hWSW-5.50 °C-1.40 °C 
06:15:000.40 °C993.10 hPa89.00 %12.96 km/hNW-3.50 °C-1.20 °C 
06:00:001.20 °C992.60 hPa84.00 %13.32 km/hNW-2.60 °C-1.20 °C 
05:45:002.60 °C992.00 hPa75.00 %6.84 km/hNW0.70 °C-1.40 °C 
05:30:003.20 °C991.30 hPa71.00 %12.24 km/hSSW0.00 °C-1.50 °C 
05:15:003.40 °C990.80 hPa69.00 %17.64 km/hW-0.60 °C-1.70 °C 
05:00:003.40 °C990.50 hPa68.00 %17.28 km/hNW-0.60 °C-1.90 °C 
04:45:003.50 °C990.50 hPa68.00 %32.76 km/hW-2.20 °C-1.80 °C 
04:30:003.60 °C990.20 hPa66.00 %12.24 km/hW0.50 °C-2.10 °C 
04:15:003.60 °C989.90 hPa67.00 %21.96 km/hNW-0.90 °C-1.90 °C 
04:00:003.60 °C989.90 hPa67.00 %6.12 km/hW2.10 °C-1.90 °C 
03:45:003.60 °C989.50 hPa66.00 %22.32 km/hW-1.00 °C-2.10 °C 
03:30:003.70 °C989.70 hPa66.00 %4.68 km/hSW3.70 °C-2.00 °C 
03:15:003.60 °C989.80 hPa66.00 %16.92 km/hWSW-0.30 °C-2.10 °C 
03:00:003.60 °C989.80 hPa66.00 %7.56 km/hW1.60 °C-2.10 °C 
02:45:003.50 °C990.10 hPa66.00 %2.52 km/hSSW3.50 °C-2.20 °C 
02:30:003.40 °C989.90 hPa67.00 %7.56 km/hSSW1.40 °C-2.10 °C 
02:15:003.40 °C989.90 hPa68.00 %8.28 km/hW1.20 °C-1.90 °C 
02:00:003.30 °C990.30 hPa73.00 %11.52 km/hW0.30 °C-1.10 °C 
01:45:003.90 °C990.20 hPa74.00 %7.56 km/hW2.00 °C-0.30 °C 
01:30:004.20 °C990.30 hPa71.00 %11.88 km/hWNW1.30 °C-0.60 °C 
01:15:004.30 °C990.50 hPa70.00 %19.80 km/hW0.20 °C-0.70 °C 
01:00:004.20 °C990.20 hPa70.00 %22.32 km/hW-0.20 °C-0.80 °C 
00:45:004.10 °C990.30 hPa70.00 %3.60 km/hSW4.10 °C-0.90 °C 
00:30:004.10 °C990.30 hPa70.00 %16.56 km/hWNW0.40 °C-0.90 °C 
00:15:004.10 °C990.40 hPa70.00 %20.52 km/hWSW-0.10 °C-0.90 °C 
00:00:004.30 °C990.30 hPa71.00 %8.64 km/hW2.10 °C-0.50 °C 

Permanenter Link zu dieser Seite: Wetter im Erzgebirge am 24.02.2017
Performance-Info: Die Erstellung der Seite / Statistik(en) / Tabelle(n) erforderte 5 Datenbankserver-Abfrage(n) und dauerte 70 Millisekunden. (Dieser Messwert ist von der Gesamt-Auslastung des Servers abhängig.)
Erzgebirge - Wetter | Erzgebirge - Wetter (Mobilgeräte) | Komplette Klimadatenbank